Colnbrook, United Kingdom
Current Conditions -  °F | °C
As of 9:20 PM on Friday 31 Oct 2014 (Local Time) from EGLL Reporting Station
Clear Clear  
Wind Chill: 61°   Ceiling: Unl
Heat Index: 61°   Visibility: 6mi
Dew Point: 54°   Wind: 8mph
Humidity: 77%   Direction: 160°SSE
Pressure: 29.97"   Gusts: NA
Location:  51.48°N, 0.52°W
Report Text: EGLL 312120Z 16007KT CAVOK 16/12 Q1015 NOSIG
Loading
Personal Weather Stations






























Interactive Weather Map
Tropical Storm Tracking
New forecast layout! Learn more

10-Day Weather Forecast

Advertisements
Track Severe Weather on mobile